sensor_id;sensor_type;location;lat;lon;timestamp;pressure;altitude;pressure_sealevel;temperature;humidity
64711;BME280;51139;45.626;6.850;2022-07-23T00:02:06;82624.59;;;16.19;59.86
64711;BME280;51139;45.626;6.850;2022-07-23T00:04:32;82630.25;;;16.45;59.43
64711;BME280;51139;45.626;6.850;2022-07-23T00:06:58;82630.75;;;16.75;56.22
64711;BME280;51139;45.626;6.850;2022-07-23T00:09:23;82628.47;;;16.59;57.22
64711;BME280;51139;45.626;6.850;2022-07-23T00:11:48;82614.25;;;16.57;57.79
64711;BME280;51139;45.626;6.850;2022-07-23T00:14:14;82608.16;;;16.44;56.84
64711;BME280;51139;45.626;6.850;2022-07-23T00:16:39;82604.91;;;16.68;56.15
64711;BME280;51139;45.626;6.850;2022-07-23T00:19:04;82598.44;;;16.49;56.03
64711;BME280;51139;45.626;6.850;2022-07-23T00:21:30;82587.97;;;16.31;56.42
64711;BME280;51139;45.626;6.850;2022-07-23T00:23:55;82590.25;;;16.25;56.49
64711;BME280;51139;45.626;6.850;2022-07-23T00:26:20;82579.50;;;16.35;55.07
64711;BME280;51139;45.626;6.850;2022-07-23T00:28:46;82573.44;;;16.34;55.53
64711;BME280;51139;45.626;6.850;2022-07-23T00:31:11;82576.91;;;16.47;54.98
64711;BME280;51139;45.626;6.850;2022-07-23T00:33:36;82568.81;;;16.57;54.92
64711;BME280;51139;45.626;6.850;2022-07-23T00:36:02;82563.22;;;16.53;55.55
64711;BME280;51139;45.626;6.850;2022-07-23T00:38:28;82559.84;;;16.52;56.06
64711;BME280;51139;45.626;6.850;2022-07-23T00:40:53;82561.78;;;16.40;56.55
64711;BME280;51139;45.626;6.850;2022-07-23T00:43:20;82555.66;;;16.49;56.90
64711;BME280;51139;45.626;6.850;2022-07-23T00:45:46;82565.44;;;16.56;56.09
64711;BME280;51139;45.626;6.850;2022-07-23T00:48:12;82564.44;;;16.61;54.85
64711;BME280;51139;45.626;6.850;2022-07-23T00:50:37;82563.91;;;16.75;54.86
64711;BME280;51139;45.626;6.850;2022-07-23T00:53:03;82560.53;;;16.53;55.50
64711;BME280;51139;45.626;6.850;2022-07-23T00:55:29;82564.75;;;16.56;55.27
64711;BME280;51139;45.626;6.850;2022-07-23T00:57:55;82564.09;;;16.45;55.20
64711;BME280;51139;45.626;6.850;2022-07-23T01:00:20;82563.25;;;16.86;51.57
64711;BME280;51139;45.626;6.850;2022-07-23T01:02:46;82571.41;;;17.22;49.92
64711;BME280;51139;45.626;6.850;2022-07-23T01:05:12;82575.50;;;17.23;50.17
64711;BME280;51139;45.626;6.850;2022-07-23T01:07:37;82575.84;;;17.75;49.61
64711;BME280;51139;45.626;6.850;2022-07-23T01:10:04;82577.22;;;17.76;48.00
64711;BME280;51139;45.626;6.850;2022-07-23T01:12:29;82572.19;;;17.58;49.23
64711;BME280;51139;45.626;6.850;2022-07-23T01:14:56;82573.78;;;17.40;49.32
64711;BME280;51139;45.626;6.850;2022-07-23T01:17:22;82580.41;;;17.39;49.89
64711;BME280;51139;45.626;6.850;2022-07-23T01:19:47;82578.59;;;17.53;49.38
64711;BME280;51139;45.626;6.850;2022-07-23T01:22:14;82583.72;;;17.61;48.37
64711;BME280;51139;45.626;6.850;2022-07-23T01:24:40;82578.28;;;17.83;47.19
64711;BME280;51139;45.626;6.850;2022-07-23T01:27:05;82583.41;;;17.78;46.86
64711;BME280;51139;45.626;6.850;2022-07-23T01:29:30;82576.44;;;17.85;45.92
64711;BME280;51139;45.626;6.850;2022-07-23T01:31:56;82572.09;;;17.92;47.19
64711;BME280;51139;45.626;6.850;2022-07-23T01:34:21;82582.16;;;18.15;46.47
64711;BME280;51139;45.626;6.850;2022-07-23T01:36:47;82577.25;;;18.35;45.80
64711;BME280;51139;45.626;6.850;2022-07-23T01:39:12;82586.94;;;18.17;44.92
64711;BME280;51139;45.626;6.850;2022-07-23T01:41:37;82590.44;;;18.19;45.15
64711;BME280;51139;45.626;6.850;2022-07-23T01:44:03;82594.75;;;18.01;45.35
64711;BME280;51139;45.626;6.850;2022-07-23T01:46:28;82592.66;;;18.23;45.29
64711;BME280;51139;45.626;6.850;2022-07-23T01:48:54;82595.66;;;17.93;47.40
64711;BME280;51139;45.626;6.850;2022-07-23T01:51:19;82602.91;;;18.38;46.20
64711;BME280;51139;45.626;6.850;2022-07-23T01:53:44;82606.16;;;18.01;45.82
64711;BME280;51139;45.626;6.850;2022-07-23T01:56:10;82609.09;;;18.29;46.11
64711;BME280;51139;45.626;6.850;2022-07-23T01:58:35;82615.97;;;18.32;46.68
64711;BME280;51139;45.626;6.850;2022-07-23T02:01:01;82624.91;;;18.01;47.90
64711;BME280;51139;45.626;6.850;2022-07-23T02:03:26;82616.91;;;17.56;47.70
64711;BME280;51139;45.626;6.850;2022-07-23T02:05:51;82619.63;;;17.79;47.82
64711;BME280;51139;45.626;6.850;2022-07-23T02:08:17;82624.47;;;18.29;46.34
64711;BME280;51139;45.626;6.850;2022-07-23T02:10:43;82627.56;;;17.89;46.36
64711;BME280;51139;45.626;6.850;2022-07-23T02:13:09;82632.63;;;18.07;46.10
64711;BME280;51139;45.626;6.850;2022-07-23T02:15:35;82636.88;;;17.88;46.68
64711;BME280;51139;45.626;6.850;2022-07-23T02:18:00;82641.22;;;18.05;46.05
64711;BME280;51139;45.626;6.850;2022-07-23T02:20:26;82653.97;;;18.17;45.85
64711;BME280;51139;45.626;6.850;2022-07-23T02:22:51;82650.53;;;17.92;46.38
64711;BME280;51139;45.626;6.850;2022-07-23T02:25:17;82652.53;;;18.04;46.56
64711;BME280;51139;45.626;6.850;2022-07-23T02:27:42;82647.25;;;17.94;47.06
64711;BME280;51139;45.626;6.850;2022-07-23T02:30:08;82632.44;;;17.81;46.96
64711;BME280;51139;45.626;6.850;2022-07-23T02:32:34;82646.66;;;17.72;47.41
64711;BME280;51139;45.626;6.850;2022-07-23T02:35:00;82647.91;;;18.28;46.68
64711;BME280;51139;45.626;6.850;2022-07-23T02:37:26;82637.56;;;17.89;47.27
64711;BME280;51139;45.626;6.850;2022-07-23T02:39:52;82639.75;;;18.26;46.85
64711;BME280;51139;45.626;6.850;2022-07-23T02:42:17;82635.09;;;18.38;46.74
64711;BME280;51139;45.626;6.850;2022-07-23T02:44:43;82639.50;;;18.34;46.88
64711;BME280;51139;45.626;6.850;2022-07-23T02:47:08;82631.22;;;17.60;47.99
64711;BME280;51139;45.626;6.850;2022-07-23T02:49:33;82635.88;;;18.05;47.51
64711;BME280;51139;45.626;6.850;2022-07-23T02:51:59;82632.03;;;18.20;46.74
64711;BME280;51139;45.626;6.850;2022-07-23T02:54:25;82633.00;;;18.25;47.36
64711;BME280;51139;45.626;6.850;2022-07-23T02:56:50;82630.88;;;18.12;48.62
64711;BME280;51139;45.626;6.850;2022-07-23T02:59:17;82626.16;;;17.88;48.54
64711;BME280;51139;45.626;6.850;2022-07-23T03:01:43;82629.69;;;17.45;49.84
64711;BME280;51139;45.626;6.850;2022-07-23T03:04:08;82627.50;;;17.54;50.03
64711;BME280;51139;45.626;6.850;2022-07-23T03:06:34;82614.31;;;17.46;50.27
64711;BME280;51139;45.626;6.850;2022-07-23T03:08:59;82619.34;;;17.18;51.92
64711;BME280;51139;45.626;6.850;2022-07-23T03:11:24;82613.88;;;16.94;51.97
64711;BME280;51139;45.626;6.850;2022-07-23T03:13:50;82617.53;;;16.77;52.84
64711;BME280;51139;45.626;6.850;2022-07-23T03:16:15;82613.94;;;16.84;51.70
64711;BME280;51139;45.626;6.850;2022-07-23T03:18:40;82608.47;;;17.04;50.58
64711;BME280;51139;45.626;6.850;2022-07-23T03:21:06;82599.94;;;17.29;49.54
64711;BME280;51139;45.626;6.850;2022-07-23T03:23:32;82599.28;;;17.07;50.54
64711;BME280;51139;45.626;6.850;2022-07-23T03:25:57;82589.06;;;17.03;50.49
64711;BME280;51139;45.626;6.850;2022-07-23T03:28:23;82595.00;;;17.14;49.40
64711;BME280;51139;45.626;6.850;2022-07-23T03:30:48;82588.22;;;17.34;47.99
64711;BME280;51139;45.626;6.850;2022-07-23T03:33:14;82594.03;;;17.31;48.46
64711;BME280;51139;45.626;6.850;2022-07-23T03:35:42;82586.63;;;17.19;49.03
64711;BME280;51139;45.626;6.850;2022-07-23T03:38:07;82580.81;;;17.11;50.06
64711;BME280;51139;45.626;6.850;2022-07-23T03:40:32;82583.88;;;17.29;48.59
64711;BME280;51139;45.626;6.850;2022-07-23T03:42:59;82585.09;;;17.04;50.67
64711;BME280;51139;45.626;6.850;2022-07-23T03:45:24;82580.00;;;17.20;48.67
64711;BME280;51139;45.626;6.850;2022-07-23T03:47:50;82578.66;;;17.31;48.45
64711;BME280;51139;45.626;6.850;2022-07-23T03:50:15;82585.75;;;17.27;48.40
64711;BME280;51139;45.626;6.850;2022-07-23T03:52:41;82588.47;;;17.05;49.25
64711;BME280;51139;45.626;6.850;2022-07-23T03:55:06;82585.59;;;17.13;49.32
64711;BME280;51139;45.626;6.850;2022-07-23T03:57:32;82582.31;;;17.14;49.70
64711;BME280;51139;45.626;6.850;2022-07-23T03:59:57;82588.16;;;16.67;51.22
64711;BME280;51139;45.626;6.850;2022-07-23T04:02:23;82583.53;;;16.46;52.33
64711;BME280;51139;45.626;6.850;2022-07-23T04:04:48;82584.84;;;16.35;52.59
64711;BME280;51139;45.626;6.850;2022-07-23T04:07:14;82584.72;;;16.33;53.57
64711;BME280;51139;45.626;6.850;2022-07-23T04:09:39;82588.00;;;16.53;53.15
64711;BME280;51139;45.626;6.850;2022-07-23T04:12:06;82589.13;;;16.50;52.55
64711;BME280;51139;45.626;6.850;2022-07-23T04:14:32;82590.88;;;16.14;53.94
64711;BME280;51139;45.626;6.850;2022-07-23T04:16:58;82590.50;;;16.29;53.80
64711;BME280;51139;45.626;6.850;2022-07-23T04:19:23;82599.84;;;16.50;51.84
64711;BME280;51139;45.626;6.850;2022-07-23T04:21:50;82603.88;;;16.95;49.73
64711;BME280;51139;45.626;6.850;2022-07-23T04:24:15;82606.03;;;16.86;49.94
64711;BME280;51139;45.626;6.850;2022-07-23T04:26:40;82610.63;;;16.96;50.34
64711;BME280;51139;45.626;6.850;2022-07-23T04:29:06;82613.75;;;16.48;53.11
64711;BME280;51139;45.626;6.850;2022-07-23T04:31:31;82618.94;;;16.56;50.98
64711;BME280;51139;45.626;6.850;2022-07-23T04:33:57;82616.63;;;16.41;51.22
64711;BME280;51139;45.626;6.850;2022-07-23T04:36:22;82612.19;;;16.55;51.30
64711;BME280;51139;45.626;6.850;2022-07-23T04:38:47;82608.78;;;16.76;50.30
64711;BME280;51139;45.626;6.850;2022-07-23T04:41:13;82608.09;;;16.54;50.16
64711;BME280;51139;45.626;6.850;2022-07-23T04:43:38;82608.03;;;16.64;50.92
64711;BME280;51139;45.626;6.850;2022-07-23T04:46:04;82611.03;;;16.58;50.63
64711;BME280;51139;45.626;6.850;2022-07-23T04:48:29;82613.97;;;16.62;50.89
64711;BME280;51139;45.626;6.850;2022-07-23T04:50:54;82613.31;;;16.52;50.03
64711;BME280;51139;45.626;6.850;2022-07-23T04:53:20;82608.78;;;16.76;49.59
64711;BME280;51139;45.626;6.850;2022-07-23T04:55:45;82610.84;;;16.88;49.95
64711;BME280;51139;45.626;6.850;2022-07-23T04:58:11;82614.56;;;16.95;49.87
64711;BME280;51139;45.626;6.850;2022-07-23T05:00:36;82621.97;;;17.06;49.41
64711;BME280;51139;45.626;6.850;2022-07-23T05:03:01;82612.53;;;17.05;49.27
64711;BME280;51139;45.626;6.850;2022-07-23T05:05:27;82618.78;;;16.98;49.89
64711;BME280;51139;45.626;6.850;2022-07-23T05:07:52;82620.44;;;17.25;48.07
64711;BME280;51139;45.626;6.850;2022-07-23T05:10:19;82620.44;;;17.25;48.79
64711;BME280;51139;45.626;6.850;2022-07-23T05:12:44;82624.81;;;17.20;47.88
64711;BME280;51139;45.626;6.850;2022-07-23T05:15:10;82634.19;;;17.09;49.02
64711;BME280;51139;45.626;6.850;2022-07-23T05:17:35;82622.56;;;17.38;48.07
64711;BME280;51139;45.626;6.850;2022-07-23T05:20:00;82633.53;;;17.54;48.12
64711;BME280;51139;45.626;6.850;2022-07-23T05:22:26;82637.03;;;18.02;46.48
64711;BME280;51139;45.626;6.850;2022-07-23T05:24:51;82631.06;;;17.92;45.99
64711;BME280;51139;45.626;6.850;2022-07-23T05:27:16;82628.72;;;17.86;46.65
64711;BME280;51139;45.626;6.850;2022-07-23T05:29:42;82626.56;;;18.18;45.83
64711;BME280;51139;45.626;6.850;2022-07-23T05:32:07;82625.56;;;17.78;47.73
64711;BME280;51139;45.626;6.850;2022-07-23T05:34:33;82620.53;;;17.72;47.70
64711;BME280;51139;45.626;6.850;2022-07-23T05:36:58;82621.78;;;17.59;48.95
64711;BME280;51139;45.626;6.850;2022-07-23T05:39:23;82627.91;;;17.84;48.51
64711;BME280;51139;45.626;6.850;2022-07-23T05:41:49;82618.59;;;17.85;48.94
64711;BME280;51139;45.626;6.850;2022-07-23T05:44:14;82614.31;;;18.03;47.61
64711;BME280;51139;45.626;6.850;2022-07-23T05:46:39;82616.72;;;17.87;47.79
64711;BME280;51139;45.626;6.850;2022-07-23T05:49:05;82615.38;;;18.10;48.07
64711;BME280;51139;45.626;6.850;2022-07-23T05:51:30;82618.88;;;18.01;47.72
64711;BME280;51139;45.626;6.850;2022-07-23T05:53:55;82614.66;;;18.21;48.05
64711;BME280;51139;45.626;6.850;2022-07-23T05:56:21;82620.84;;;18.12;48.19
64711;BME280;51139;45.626;6.850;2022-07-23T05:58:46;82617.00;;;18.03;47.07
64711;BME280;51139;45.626;6.850;2022-07-23T06:01:13;82615.03;;;18.16;46.43
64711;BME280;51139;45.626;6.850;2022-07-23T06:03:39;82608.22;;;17.79;49.96
64711;BME280;51139;45.626;6.850;2022-07-23T06:06:05;82609.69;;;18.16;48.66
64711;BME280;51139;45.626;6.850;2022-07-23T06:08:31;82614.06;;;18.71;48.15
64711;BME280;51139;45.626;6.850;2022-07-23T06:10:56;82614.00;;;19.06;47.79
64711;BME280;51139;45.626;6.850;2022-07-23T06:13:21;82612.16;;;18.85;48.11
64711;BME280;51139;45.626;6.850;2022-07-23T06:15:47;82620.63;;;18.32;49.89
64711;BME280;51139;45.626;6.850;2022-07-23T06:18:13;82615.50;;;18.12;46.68
64711;BME280;51139;45.626;6.850;2022-07-23T06:20:38;82627.78;;;17.36;50.63
64711;BME280;51139;45.626;6.850;2022-07-23T06:23:04;82621.91;;;17.49;49.95
64711;BME280;51139;45.626;6.850;2022-07-23T06:25:29;82626.84;;;17.77;47.63
64711;BME280;51139;45.626;6.850;2022-07-23T06:27:55;82621.16;;;17.94;49.29
64711;BME280;51139;45.626;6.850;2022-07-23T06:30:20;82622.34;;;18.03;48.69
64711;BME280;51139;45.626;6.850;2022-07-23T06:32:46;82621.88;;;18.55;47.51
64711;BME280;51139;45.626;6.850;2022-07-23T06:35:12;82618.81;;;18.84;46.45
64711;BME280;51139;45.626;6.850;2022-07-23T06:37:37;82619.88;;;19.03;46.23
64711;BME280;51139;45.626;6.850;2022-07-23T06:40:03;82627.09;;;19.00;46.15
64711;BME280;51139;45.626;6.850;2022-07-23T06:42:28;82628.03;;;18.81;46.67
64711;BME280;51139;45.626;6.850;2022-07-23T06:44:54;82631.22;;;19.27;44.90
64711;BME280;51139;45.626;6.850;2022-07-23T06:47:19;82632.94;;;19.34;45.20
64711;BME280;51139;45.626;6.850;2022-07-23T06:49:45;82632.91;;;19.46;44.53
64711;BME280;51139;45.626;6.850;2022-07-23T06:52:10;82641.91;;;19.51;44.69
64711;BME280;51139;45.626;6.850;2022-07-23T06:54:35;82636.03;;;19.54;44.26
64711;BME280;51139;45.626;6.850;2022-07-23T06:57:01;82634.56;;;19.39;44.63
64711;BME280;51139;45.626;6.850;2022-07-23T06:59:26;82634.66;;;19.42;44.83
64711;BME280;51139;45.626;6.850;2022-07-23T07:01:52;82625.38;;;19.57;44.36
64711;BME280;51139;45.626;6.850;2022-07-23T07:04:17;82621.72;;;19.38;43.81
64711;BME280;51139;45.626;6.850;2022-07-23T07:06:42;82617.56;;;18.73;47.64
64711;BME280;51139;45.626;6.850;2022-07-23T07:09:08;82623.16;;;18.77;47.89
64711;BME280;51139;45.626;6.850;2022-07-23T07:11:33;82617.75;;;19.01;47.39
64711;BME280;51139;45.626;6.850;2022-07-23T07:13:59;82624.31;;;18.98;46.62
64711;BME280;51139;45.626;6.850;2022-07-23T07:16:24;82630.69;;;18.93;50.90
64711;BME280;51139;45.626;6.850;2022-07-23T07:18:49;82631.06;;;19.37;48.62
64711;BME280;51139;45.626;6.850;2022-07-23T07:21:15;82620.13;;;19.59;47.72
64711;BME280;51139;45.626;6.850;2022-07-23T07:23:40;82623.78;;;19.77;46.52
64711;BME280;51139;45.626;6.850;2022-07-23T07:26:06;82609.16;;;19.80;47.32
64711;BME280;51139;45.626;6.850;2022-07-23T07:28:31;82614.00;;;19.44;48.47
64711;BME280;51139;45.626;6.850;2022-07-23T07:30:56;82608.63;;;18.94;53.93
64711;BME280;51139;45.626;6.850;2022-07-23T07:33:22;82606.09;;;17.77;55.63
64711;BME280;51139;45.626;6.850;2022-07-23T07:35:47;82604.25;;;17.92;53.31
64711;BME280;51139;45.626;6.850;2022-07-23T07:38:13;82607.16;;;17.72;56.65
64711;BME280;51139;45.626;6.850;2022-07-23T07:40:39;82605.34;;;17.53;50.48
64711;BME280;51139;45.626;6.850;2022-07-23T07:43:05;82606.88;;;18.02;48.77
64711;BME280;51139;45.626;6.850;2022-07-23T07:45:31;82601.38;;;18.23;51.49
64711;BME280;51139;45.626;6.850;2022-07-23T07:47:57;82589.78;;;18.69;51.71
64711;BME280;51139;45.626;6.850;2022-07-23T07:50:23;82587.72;;;19.17;50.47
64711;BME280;51139;45.626;6.850;2022-07-23T07:52:48;82585.16;;;18.69;53.45
64711;BME280;51139;45.626;6.850;2022-07-23T07:55:14;82583.06;;;17.84;55.95
64711;BME280;51139;45.626;6.850;2022-07-23T07:57:40;82584.59;;;17.87;52.30
64711;BME280;51139;45.626;6.850;2022-07-23T08:00:07;82581.28;;;18.72;48.57
64711;BME280;51139;45.626;6.850;2022-07-23T08:02:43;82593.47;;;19.11;46.94
64711;BME280;51139;45.626;6.850;2022-07-23T08:05:09;82590.03;;;19.74;49.03
64711;BME280;51139;45.626;6.850;2022-07-23T08:07:35;82593.81;;;19.95;48.32
64711;BME280;51139;45.626;6.850;2022-07-23T08:10:02;82597.53;;;20.16;45.10
64711;BME280;51139;45.626;6.850;2022-07-23T08:12:28;82590.50;;;20.50;47.15
64711;BME280;51139;45.626;6.850;2022-07-23T08:14:53;82593.38;;;20.68;44.71
64711;BME280;51139;45.626;6.850;2022-07-23T08:17:18;82596.47;;;21.05;44.62
64711;BME280;51139;45.626;6.850;2022-07-23T08:19:44;82592.09;;;20.97;42.97
64711;BME280;51139;45.626;6.850;2022-07-23T08:22:09;82594.22;;;20.85;42.58
64711;BME280;51139;45.626;6.850;2022-07-23T08:24:34;82595.97;;;21.08;42.07
64711;BME280;51139;45.626;6.850;2022-07-23T08:27:00;82582.41;;;21.50;43.05
64711;BME280;51139;45.626;6.850;2022-07-23T08:29:25;82593.25;;;21.66;42.85
64711;BME280;51139;45.626;6.850;2022-07-23T08:31:51;82600.03;;;21.23;44.04
64711;BME280;51139;45.626;6.850;2022-07-23T08:34:16;82600.28;;;21.43;45.35
64711;BME280;51139;45.626;6.850;2022-07-23T08:36:41;82600.38;;;20.60;46.24
64711;BME280;51139;45.626;6.850;2022-07-23T08:39:07;82592.50;;;20.64;43.60
64711;BME280;51139;45.626;6.850;2022-07-23T08:41:33;82594.97;;;20.46;43.48
64711;BME280;51139;45.626;6.850;2022-07-23T08:43:59;82586.94;;;21.32;43.12
64711;BME280;51139;45.626;6.850;2022-07-23T08:46:26;82589.25;;;21.23;42.38
64711;BME280;51139;45.626;6.850;2022-07-23T08:48:51;82597.28;;;21.51;41.57
64711;BME280;51139;45.626;6.850;2022-07-23T08:51:20;82593.28;;;21.08;40.95
64711;BME280;51139;45.626;6.850;2022-07-23T08:53:46;82594.16;;;21.27;41.47
64711;BME280;51139;45.626;6.850;2022-07-23T08:56:12;82586.28;;;21.61;42.18
64711;BME280;51139;45.626;6.850;2022-07-23T08:58:37;82589.00;;;21.47;40.47
64711;BME280;51139;45.626;6.850;2022-07-23T09:01:03;82588.69;;;21.55;41.90
64711;BME280;51139;45.626;6.850;2022-07-23T09:03:31;82588.47;;;21.65;41.03
64711;BME280;51139;45.626;6.850;2022-07-23T09:05:58;82587.47;;;21.58;41.96
64711;BME280;51139;45.626;6.850;2022-07-23T09:08:41;82595.34;;;21.98;41.04
64711;BME280;51139;45.626;6.850;2022-07-23T09:11:09;82587.06;;;21.64;39.36
64711;BME280;51139;45.626;6.850;2022-07-23T09:13:53;82584.16;;;21.60;37.87
64711;BME280;51139;45.626;6.850;2022-07-23T09:16:24;82586.81;;;21.88;38.32
64711;BME280;51139;45.626;6.850;2022-07-23T09:18:57;82587.84;;;21.80;39.41
64711;BME280;51139;45.626;6.850;2022-07-23T09:31:22;82577.56;;;22.39;37.75
64711;BME280;51139;45.626;6.850;2022-07-23T09:33:50;82575.97;;;22.18;36.47
64711;BME280;51139;45.626;6.850;2022-07-23T09:36:27;82576.97;;;21.94;36.36
64711;BME280;51139;45.626;6.850;2022-07-23T09:38:52;82578.94;;;22.24;35.71
64711;BME280;51139;45.626;6.850;2022-07-23T09:41:18;82575.81;;;22.62;36.62
64711;BME280;51139;45.626;6.850;2022-07-23T09:43:44;82577.75;;;23.25;37.04
64711;BME280;51139;45.626;6.850;2022-07-23T09:46:26;82573.63;;;23.76;34.88
64711;BME280;51139;45.626;6.850;2022-07-23T09:48:56;82575.16;;;23.45;33.53
64711;BME280;51139;45.626;6.850;2022-07-23T09:51:22;82573.00;;;23.42;35.27
64711;BME280;51139;45.626;6.850;2022-07-23T09:53:54;82570.94;;;23.76;35.15
64711;BME280;51139;45.626;6.850;2022-07-23T09:56:20;82574.47;;;22.95;37.48
64711;BME280;51139;45.626;6.850;2022-07-23T09:58:49;82567.13;;;23.48;35.15
64711;BME280;51139;45.626;6.850;2022-07-23T10:01:17;82568.16;;;23.74;33.77
64711;BME280;51139;45.626;6.850;2022-07-23T10:03:42;82569.31;;;23.51;33.66
64711;BME280;51139;45.626;6.850;2022-07-23T10:06:13;82565.13;;;23.48;37.44
64711;BME280;51139;45.626;6.850;2022-07-23T10:08:44;82572.53;;;23.48;36.15
64711;BME280;51139;45.626;6.850;2022-07-23T10:11:13;82569.50;;;23.05;36.23
64711;BME280;51139;45.626;6.850;2022-07-23T10:13:40;82565.94;;;23.35;36.71
64711;BME280;51139;45.626;6.850;2022-07-23T10:16:21;82574.19;;;23.73;37.44
64711;BME280;51139;45.626;6.850;2022-07-23T10:18:48;82575.41;;;23.52;34.36
64711;BME280;51139;45.626;6.850;2022-07-23T10:21:19;82573.97;;;23.32;36.43
64711;BME280;51139;45.626;6.850;2022-07-23T10:24:01;82570.50;;;23.14;35.09
64711;BME280;51139;45.626;6.850;2022-07-23T10:36:58;82571.25;;;24.03;36.05
64711;BME280;51139;45.626;6.850;2022-07-23T10:41:51;82564.63;;;24.06;36.43
64711;BME280;51139;45.626;6.850;2022-07-23T10:44:19;82571.91;;;24.01;35.04
64711;BME280;51139;45.626;6.850;2022-07-23T10:47:02;82566.78;;;23.92;36.45
64711;BME280;51139;45.626;6.850;2022-07-23T10:49:46;82558.41;;;24.22;37.12
64711;BME280;51139;45.626;6.850;2022-07-23T10:52:22;82561.91;;;24.06;35.90
64711;BME280;51139;45.626;6.850;2022-07-23T10:54:53;82557.66;;;24.01;37.20
64711;BME280;51139;45.626;6.850;2022-07-23T10:57:24;82566.88;;;24.12;35.79
64711;BME280;51139;45.626;6.850;2022-07-23T11:02:30;82559.38;;;23.92;37.77
64711;BME280;51139;45.626;6.850;2022-07-23T11:05:12;82561.44;;;23.94;36.21
64711;BME280;51139;45.626;6.850;2022-07-23T11:11:10;82558.13;;;23.77;37.21
64711;BME280;51139;45.626;6.850;2022-07-23T11:13:45;82559.22;;;24.06;38.01
64711;BME280;51139;45.626;6.850;2022-07-23T11:16:20;82552.41;;;24.05;37.39
64711;BME280;51139;45.626;6.850;2022-07-23T11:26:56;82553.69;;;23.50;37.58
64711;BME280;51139;45.626;6.850;2022-07-23T11:31:58;82549.06;;;23.18;35.05
64711;BME280;51139;45.626;6.850;2022-07-23T11:37:00;82562.00;;;23.38;38.76
64711;BME280;51139;45.626;6.850;2022-07-23T11:39:28;82561.19;;;23.51;37.93
64711;BME280;51139;45.626;6.850;2022-07-23T11:41:54;82554.72;;;23.58;36.79
64711;BME280;51139;45.626;6.850;2022-07-23T11:44:33;82560.91;;;23.79;39.07
64711;BME280;51139;45.626;6.850;2022-07-23T11:47:03;82565.94;;;24.05;37.81
64711;BME280;51139;45.626;6.850;2022-07-23T11:49:29;82556.97;;;24.00;37.90
64711;BME280;51139;45.626;6.850;2022-07-23T11:54:34;82557.63;;;24.37;37.88
64711;BME280;51139;45.626;6.850;2022-07-23T11:57:01;82561.91;;;24.24;39.64
64711;BME280;51139;45.626;6.850;2022-07-23T11:59:29;82554.22;;;24.37;37.85
64711;BME280;51139;45.626;6.850;2022-07-23T12:02:00;82561.13;;;24.60;38.39
64711;BME280;51139;45.626;6.850;2022-07-23T12:04:44;82561.94;;;24.44;37.23
64711;BME280;51139;45.626;6.850;2022-07-23T12:09:58;82554.38;;;24.79;36.99
64711;BME280;51139;45.626;6.850;2022-07-23T12:12:24;82550.78;;;24.16;38.00
64711;BME280;51139;45.626;6.850;2022-07-23T12:14:57;82556.31;;;23.84;38.04
64711;BME280;51139;45.626;6.850;2022-07-23T12:17:31;82561.03;;;23.65;38.30
64711;BME280;51139;45.626;6.850;2022-07-23T12:19:58;82554.03;;;24.12;37.85
64711;BME280;51139;45.626;6.850;2022-07-23T12:22:25;82545.41;;;24.36;38.95
64711;BME280;51139;45.626;6.850;2022-07-23T12:27:21;82550.22;;;23.65;36.86
64711;BME280;51139;45.626;6.850;2022-07-23T12:29:47;82550.88;;;24.00;37.02
64711;BME280;51139;45.626;6.850;2022-07-23T12:34:45;82556.94;;;24.37;36.85
64711;BME280;51139;45.626;6.850;2022-07-23T12:37:27;82550.94;;;24.20;36.96
64711;BME280;51139;45.626;6.850;2022-07-23T12:39:53;82555.19;;;24.07;36.48
64711;BME280;51139;45.626;6.850;2022-07-23T12:42:18;82560.91;;;24.54;36.75
64711;BME280;51139;45.626;6.850;2022-07-23T12:45:09;82547.38;;;24.54;36.71
64711;BME280;51139;45.626;6.850;2022-07-23T12:50:41;82546.41;;;24.27;38.04
64711;BME280;51139;45.626;6.850;2022-07-23T12:53:40;82544.44;;;23.91;36.73
64711;BME280;51139;45.626;6.850;2022-07-23T12:56:11;82553.31;;;23.75;37.33
64711;BME280;51139;45.626;6.850;2022-07-23T12:58:50;82541.13;;;23.22;37.48
64711;BME280;51139;45.626;6.850;2022-07-23T13:07:00;82566.28;;;23.61;38.68
64711;BME280;51139;45.626;6.850;2022-07-23T13:09:30;82573.25;;;23.84;38.11
64711;BME280;51139;45.626;6.850;2022-07-23T13:11:57;82570.41;;;23.98;37.29
64711;BME280;51139;45.626;6.850;2022-07-23T13:14:23;82571.00;;;23.97;36.79
64711;BME280;51139;45.626;6.850;2022-07-23T13:16:50;82571.41;;;23.71;38.44
64711;BME280;51139;45.626;6.850;2022-07-23T13:19:16;82563.97;;;23.53;38.39
64711;BME280;51139;45.626;6.850;2022-07-23T13:21:42;82568.16;;;23.56;39.12
64711;BME280;51139;45.626;6.850;2022-07-23T13:24:09;82566.66;;;23.35;39.81
64711;BME280;51139;45.626;6.850;2022-07-23T13:26:36;82563.97;;;23.71;37.88
64711;BME280;51139;45.626;6.850;2022-07-23T13:29:02;82561.28;;;23.71;37.34
64711;BME280;51139;45.626;6.850;2022-07-23T13:31:28;82559.56;;;23.62;38.58
64711;BME280;51139;45.626;6.850;2022-07-23T13:33:53;82557.66;;;23.65;37.83
64711;BME280;51139;45.626;6.850;2022-07-23T13:36:18;82563.38;;;23.73;37.97
64711;BME280;51139;45.626;6.850;2022-07-23T13:38:44;82564.69;;;24.08;35.98
64711;BME280;51139;45.626;6.850;2022-07-23T13:41:09;82560.88;;;23.61;36.86
64711;BME280;51139;45.626;6.850;2022-07-23T13:43:35;82559.44;;;23.76;39.44
64711;BME280;51139;45.626;6.850;2022-07-23T13:46:00;82562.72;;;24.29;38.03
64711;BME280;51139;45.626;6.850;2022-07-23T13:48:26;82558.03;;;24.11;36.25
64711;BME280;51139;45.626;6.850;2022-07-23T13:50:52;82562.13;;;24.12;37.31
64711;BME280;51139;45.626;6.850;2022-07-23T13:53:19;82558.72;;;24.30;37.11
64711;BME280;51139;45.626;6.850;2022-07-23T13:55:47;82552.41;;;24.23;37.02
64711;BME280;51139;45.626;6.850;2022-07-23T13:58:13;82551.38;;;24.32;36.80
64711;BME280;51139;45.626;6.850;2022-07-23T14:00:42;82550.00;;;23.95;36.39